Time;durP1;ratioP1;P1;durP2;ratioP2;P2;SDS_P1;SDS_P2;PMS_P1;PMS_P2;Temp;Humidity;BMP_temperature;BMP_pressure;BME280_temperature;BME280_humidity;BME280_pressure;Samples;Min_cycle;Max_cycle;Signal;HPM_P1;HPM_P2
2021/12/28 00:01:24;;;;;;;16.48;5.40;;;;;;;;;;6207642;23;20009;-44
2021/12/28 00:03:50;;;;;;;17.10;4.97;;;;;;;;;;6207654;23;20008;-45
2021/12/28 00:06:16;;;;;;;12.45;4.72;;;;;;;;;;6207755;23;20012;-45
2021/12/28 00:08:41;;;;;;;16.00;4.63;;;;;;;;;;6207830;23;20008;-47
2021/12/28 00:11:07;;;;;;;15.05;5.20;;;;;;;;;;6208226;23;20032;-45
2021/12/28 00:13:33;;;;;;;18.70;4.70;;;;;;;;;;6207453;23;20019;-45
2021/12/28 00:18:30;;;;;;;20.05;5.78;;;;;;;;;;6208004;23;20012;-46
2021/12/28 00:20:56;;;;;;;17.67;5.85;;;;;;;;;;6207885;23;20019;-45
2021/12/28 00:23:25;;;;;;;13.32;3.92;;;;;;;;;;6207210;23;20076;-44
2021/12/28 00:25:51;;;;;;;14.82;4.53;;;;;;;;;;6207800;23;20476;-45
2021/12/28 00:28:16;;;;;;;11.10;4.53;;;;;;;;;;6207077;23;20036;-47
2021/12/28 00:30:42;;;;;;;11.02;4.10;;;;;;;;;;6205704;23;20012;-45
2021/12/28 00:33:07;;;;;;;16.33;5.10;;;;;;;;;;6207676;23;20059;-44
2021/12/28 00:35:34;;;;;;;13.05;4.63;;;;;;;;;;6207105;23;20008;-45
2021/12/28 00:37:59;;;;;;;18.58;6.00;;;;;;;;;;6207936;23;20084;-45
2021/12/28 00:40:25;;;;;;;11.65;4.38;;;;;;;;;;6207319;23;20100;-44
2021/12/28 00:42:50;;;;;;;15.02;4.88;;;;;;;;;;6207573;23;20005;-46
2021/12/28 00:45:16;;;;;;;13.60;4.00;;;;;;;;;;6207249;23;20015;-44
2021/12/28 00:47:41;;;;;;;16.35;4.40;;;;;;;;;;6207512;23;20031;-45
2021/12/28 00:50:08;;;;;;;14.70;4.38;;;;;;;;;;6207972;23;20396;-48
2021/12/28 00:52:34;;;;;;;23.52;6.38;;;;;;;;;;6207131;23;20089;-45
2021/12/28 00:55:00;;;;;;;15.50;4.85;;;;;;;;;;6207799;23;20005;-46
2021/12/28 00:57:25;;;;;;;14.95;5.95;;;;;;;;;;6207269;23;20008;-45
2021/12/28 00:59:50;;;;;;;26.67;5.50;;;;;;;;;;6207821;23;20017;-45
2021/12/28 01:02:15;;;;;;;11.77;4.90;;;;;;;;;;6207067;23;20019;-46
2021/12/28 01:04:40;;;;;;;17.02;5.20;;;;;;;;;;6207723;23;20442;-47
2021/12/28 01:07:06;;;;;;;16.65;4.10;;;;;;;;;;6207430;23;20035;-45
2021/12/28 01:09:31;;;;;;;18.00;5.75;;;;;;;;;;6207160;23;20337;-45
2021/12/28 01:12:00;;;;;;;19.13;4.93;;;;;;;;;;6207284;23;20040;-45
2021/12/28 01:14:27;;;;;;;12.48;4.88;;;;;;;;;;6206987;23;20050;-45
2021/12/28 01:16:52;;;;;;;20.02;5.35;;;;;;;;;;6207480;23;20069;-46
2021/12/28 01:19:17;;;;;;;11.07;4.03;;;;;;;;;;6206737;23;20411;-44
2021/12/28 01:21:43;;;;;;;16.75;4.40;;;;;;;;;;6207524;23;20374;-46
2021/12/28 01:24:08;;;;;;;11.13;4.00;;;;;;;;;;6207191;23;20005;-48
2021/12/28 01:26:33;;;;;;;15.13;5.47;;;;;;;;;;6206453;23;20009;-45
2021/12/28 01:28:58;;;;;;;14.57;4.97;;;;;;;;;;6207441;23;20430;-45
2021/12/28 01:31:24;;;;;;;12.05;4.10;;;;;;;;;;6206938;23;20086;-44
2021/12/28 01:33:49;;;;;;;13.25;4.45;;;;;;;;;;6207613;23;20040;-44
2021/12/28 01:36:14;;;;;;;9.63;3.22;;;;;;;;;;6206938;23;20012;-45
2021/12/28 01:38:40;;;;;;;12.30;3.80;;;;;;;;;;6207269;23;20449;-46
2021/12/28 01:41:09;;;;;;;21.80;3.67;;;;;;;;;;6207502;23;20009;-46
2021/12/28 01:43:34;;;;;;;12.40;4.03;;;;;;;;;;6206876;23;20455;-46
2021/12/28 01:46:00;;;;;;;14.65;5.38;;;;;;;;;;6205353;23;20083;-45
2021/12/28 01:48:40;;;;;;;12.98;4.28;;;;;;;;;;6206593;23;20005;-45
2021/12/28 01:51:06;;;;;;;11.45;3.80;;;;;;;;;;6206731;23;20021;-47
2021/12/28 01:53:32;;;;;;;12.38;3.00;;;;;;;;;;6206910;23;20035;-45
2021/12/28 01:55:59;;;;;;;9.60;2.80;;;;;;;;;;6207050;23;20009;-46
2021/12/28 01:58:25;;;;;;;6.80;2.47;;;;;;;;;;6206995;23;20429;-47
2021/12/28 02:00:52;;;;;;;7.45;2.95;;;;;;;;;;6207367;23;20033;-46
2021/12/28 02:03:18;;;;;;;8.57;3.22;;;;;;;;;;6207228;23;20058;-46
2021/12/28 02:05:44;;;;;;;9.48;2.88;;;;;;;;;;6208619;23;20008;-47
2021/12/28 02:08:10;;;;;;;14.93;3.13;;;;;;;;;;6207028;23;20011;-46
2021/12/28 02:10:36;;;;;;;8.48;2.78;;;;;;;;;;6208885;23;20012;-46
2021/12/28 02:13:03;;;;;;;7.82;3.05;;;;;;;;;;6209139;23;20004;-47
2021/12/28 02:15:28;;;;;;;7.00;2.72;;;;;;;;;;6205865;23;20092;-49
2021/12/28 02:17:53;;;;;;;7.57;2.00;;;;;;;;;;6208880;23;20036;-48
2021/12/28 02:20:19;;;;;;;6.22;2.20;;;;;;;;;;6208606;23;20027;-47
2021/12/28 02:22:45;;;;;;;4.70;2.40;;;;;;;;;;6209203;23;20080;-45
2021/12/28 02:25:11;;;;;;;9.43;2.35;;;;;;;;;;6209326;23;20016;-49
2021/12/28 02:27:37;;;;;;;9.90;2.25;;;;;;;;;;6208326;23;20009;-44
2021/12/28 02:30:07;;;;;;;3.35;1.50;;;;;;;;;;6209321;23;20083;-47
2021/12/28 02:32:32;;;;;;;4.60;2.20;;;;;;;;;;6208327;23;20008;-44
2021/12/28 02:34:58;;;;;;;4.30;2.20;;;;;;;;;;6209370;23;20015;-46
2021/12/28 02:37:23;;;;;;;6.15;2.17;;;;;;;;;;6208233;23;20039;-44
2021/12/28 02:39:49;;;;;;;4.88;2.00;;;;;;;;;;6209355;23;20025;-45
2021/12/28 02:42:15;;;;;;;3.97;2.05;;;;;;;;;;6208461;23;20076;-46
2021/12/28 02:44:40;;;;;;;7.10;1.92;;;;;;;;;;6208934;23;20087;-45
2021/12/28 02:47:05;;;;;;;5.22;1.95;;;;;;;;;;6208800;23;20514;-44
2021/12/28 02:49:31;;;;;;;5.75;2.00;;;;;;;;;;6207932;23;20340;-45
2021/12/28 02:51:56;;;;;;;6.43;2.50;;;;;;;;;;6232425;23;20008;-43
2021/12/28 02:54:21;;;;;;;6.18;1.75;;;;;;;;;;6207328;23;20151;-44
2021/12/28 02:56:46;;;;;;;4.57;2.03;;;;;;;;;;6206658;23;20092;-44
2021/12/28 02:59:12;;;;;;;5.68;1.35;;;;;;;;;;6208418;23;20024;-45
2021/12/28 03:01:40;;;;;;;3.88;1.40;;;;;;;;;;6208283;23;20024;-47
2021/12/28 03:04:07;;;;;;;4.57;1.40;;;;;;;;;;6208975;23;20059;-44
2021/12/28 03:06:33;;;;;;;5.45;1.27;;;;;;;;;;6207861;23;20104;-44
2021/12/28 03:08:59;;;;;;;2.92;1.25;;;;;;;;;;6208593;23;20032;-44
2021/12/28 03:11:26;;;;;;;1.30;0.80;;;;;;;;;;6205383;23;20032;-47
2021/12/28 03:13:53;;;;;;;1.60;1.00;;;;;;;;;;6208641;23;20382;-44
2021/12/28 03:16:20;;;;;;;3.17;1.13;;;;;;;;;;6208092;23;20013;-44
2021/12/28 03:18:45;;;;;;;5.30;2.05;;;;;;;;;;6208191;23;20026;-44
2021/12/28 03:21:11;;;;;;;1.15;1.00;;;;;;;;;;6208068;23;20027;-44
2021/12/28 03:23:37;;;;;;;2.42;1.48;;;;;;;;;;6208627;23;20087;-48
2021/12/28 03:26:03;;;;;;;1.10;0.73;;;;;;;;;;6208812;23;20485;-44
2021/12/28 03:28:30;;;;;;;6.40;0.90;;;;;;;;;;6207611;23;20019;-45
2021/12/28 03:30:56;;;;;;;1.85;1.02;;;;;;;;;;6207540;23;20011;-45
2021/12/28 03:33:22;;;;;;;2.50;1.10;;;;;;;;;;6207692;23;20005;-45
2021/12/28 03:35:48;;;;;;;3.63;0.80;;;;;;;;;;6208594;23;20031;-46
2021/12/28 03:38:13;;;;;;;1.23;0.80;;;;;;;;;;6207865;23;20469;-44
2021/12/28 03:40:38;;;;;;;2.10;0.70;;;;;;;;;;6208262;23;20023;-46
2021/12/28 03:43:04;;;;;;;2.92;0.98;;;;;;;;;;6207475;23;20004;-44
2021/12/28 03:45:29;;;;;;;1.60;1.00;;;;;;;;;;6207813;23;20461;-44
2021/12/28 03:47:54;;;;;;;2.15;1.00;;;;;;;;;;6207906;23;20008;-44
2021/12/28 03:50:22;;;;;;;2.05;0.98;;;;;;;;;;6207241;23;20099;-44
2021/12/28 03:52:47;;;;;;;1.77;1.00;;;;;;;;;;6208108;23;20020;-46
2021/12/28 03:55:12;;;;;;;4.85;0.80;;;;;;;;;;6207893;23;20005;-44
2021/12/28 03:57:39;;;;;;;3.05;0.82;;;;;;;;;;6207891;23;20009;-44
2021/12/28 04:00:06;;;;;;;2.67;0.95;;;;;;;;;;6208160;23;20365;-46
2021/12/28 04:02:31;;;;;;;4.22;0.93;;;;;;;;;;6207396;23;20012;-45
2021/12/28 04:04:57;;;;;;;1.38;0.98;;;;;;;;;;6208545;23;20015;-45
2021/12/28 04:07:22;;;;;;;1.35;1.08;;;;;;;;;;6207166;23;20009;-45
2021/12/28 04:12:15;;;;;;;0.88;0.82;;;;;;;;;;6207872;23;20005;-46
2021/12/28 04:14:41;;;;;;;1.80;0.50;;;;;;;;;;6208306;23;20027;-44
2021/12/28 04:17:06;;;;;;;0.47;0.40;;;;;;;;;;6208046;23;20111;-44
2021/12/28 04:19:31;;;;;;;1.40;0.68;;;;;;;;;;6207077;23;20017;-45
2021/12/28 04:21:57;;;;;;;1.67;0.50;;;;;;;;;;6207830;23;20008;-45
2021/12/28 04:24:22;;;;;;;0.70;0.40;;;;;;;;;;6207593;23;20091;-44
2021/12/28 04:26:47;;;;;;;0.65;0.63;;;;;;;;;;6207884;23;20016;-44
2021/12/28 04:29:12;;;;;;;2.03;0.38;;;;;;;;;;6207664;23;20499;-45
2021/12/28 04:31:38;;;;;;;1.00;0.30;;;;;;;;;;6207628;23;20016;-44
2021/12/28 04:34:03;;;;;;;0.30;0.20;;;;;;;;;;6207989;23;20020;-44
2021/12/28 04:36:28;;;;;;;1.58;0.30;;;;;;;;;;6206964;23;20020;-44
2021/12/28 04:38:53;;;;;;;0.65;0.30;;;;;;;;;;6206851;23;20020;-45
2021/12/28 04:41:19;;;;;;;0.47;0.30;;;;;;;;;;6206307;23;20005;-45
2021/12/28 04:43:46;;;;;;;0.98;0.40;;;;;;;;;;6206944;23;20041;-45
2021/12/28 04:46:11;;;;;;;2.63;0.40;;;;;;;;;;6207425;23;20091;-42
2021/12/28 04:48:37;;;;;;;1.00;0.30;;;;;;;;;;6207512;23;20051;-45
2021/12/28 04:51:02;;;;;;;1.42;0.47;;;;;;;;;;6207377;23;20017;-46
2021/12/28 04:53:28;;;;;;;2.63;0.60;;;;;;;;;;6206721;23;20479;-48
2021/12/28 04:55:53;;;;;;;0.93;0.40;;;;;;;;;;6207923;23;20063;-44
2021/12/28 04:58:19;;;;;;;0.52;0.30;;;;;;;;;;6207065;23;20299;-46
2021/12/28 05:00:45;;;;;;;0.35;0.30;;;;;;;;;;6207803;23;20071;-44
2021/12/28 05:03:11;;;;;;;1.58;0.28;;;;;;;;;;6207273;23;20004;-42
2021/12/28 05:05:38;;;;;;;1.55;0.82;;;;;;;;;;6207803;23;20066;-43
2021/12/28 05:08:04;;;;;;;0.30;0.30;;;;;;;;;;6207382;23;20370;-45
2021/12/28 05:10:30;;;;;;;0.40;0.32;;;;;;;;;;6207089;23;20021;-44
2021/12/28 05:12:55;;;;;;;0.20;0.20;;;;;;;;;;6207425;23;20005;-45
2021/12/28 05:15:21;;;;;;;0.32;0.20;;;;;;;;;;6205298;23;20015;-45
2021/12/28 05:17:46;;;;;;;0.22;0.20;;;;;;;;;;6207402;23;20015;-44
2021/12/28 05:20:12;;;;;;;0.20;0.20;;;;;;;;;;6206939;23;20083;-43
2021/12/28 05:22:37;;;;;;;1.15;0.35;;;;;;;;;;6207242;23;19997;-44
2021/12/28 05:25:03;;;;;;;0.30;0.30;;;;;;;;;;6207685;23;20083;-45
2021/12/28 05:27:28;;;;;;;1.25;0.30;;;;;;;;;;6207057;23;20059;-45
2021/12/28 05:29:53;;;;;;;1.38;0.68;;;;;;;;;;6207361;23;20044;-45
2021/12/28 05:32:18;;;;;;;0.63;0.52;;;;;;;;;;6206821;23;20067;-44
2021/12/28 05:34:44;;;;;;;1.20;0.60;;;;;;;;;;6207412;23;20063;-45
2021/12/28 05:37:09;;;;;;;1.42;0.30;;;;;;;;;;6207793;23;20001;-45
2021/12/28 05:39:34;;;;;;;1.88;0.30;;;;;;;;;;6207938;23;20016;-45
2021/12/28 05:42:00;;;;;;;2.17;0.50;;;;;;;;;;6209458;23;20005;-45
2021/12/28 05:44:25;;;;;;;0.38;0.25;;;;;;;;;;6208896;23;20020;-44
2021/12/28 05:46:50;;;;;;;0.30;0.30;;;;;;;;;;6209781;23;20772;-45
2021/12/28 05:49:16;;;;;;;2.35;0.50;;;;;;;;;;6208872;23;20503;-43
2021/12/28 05:51:41;;;;;;;0.95;0.28;;;;;;;;;;6209353;23;20023;-44
2021/12/28 05:54:06;;;;;;;0.75;0.47;;;;;;;;;;6209463;23;20009;-44
2021/12/28 05:56:31;;;;;;;2.33;0.45;;;;;;;;;;6209152;23;20027;-44
2021/12/28 05:58:57;;;;;;;2.30;0.50;;;;;;;;;;6208799;23;20025;-45
2021/12/28 06:01:22;;;;;;;0.45;0.38;;;;;;;;;;6207073;23;20059;-44
2021/12/28 06:03:47;;;;;;;0.73;0.40;;;;;;;;;;6209462;23;20375;-44
2021/12/28 06:06:13;;;;;;;0.30;0.30;;;;;;;;;;6208614;23;20402;-45
2021/12/28 06:08:38;;;;;;;0.40;0.40;;;;;;;;;;6208773;23;20074;-45
2021/12/28 06:11:06;;;;;;;2.42;0.60;;;;;;;;;;6209338;23;20005;-44
2021/12/28 06:13:31;;;;;;;0.98;0.88;;;;;;;;;;6208760;23;20001;-45
2021/12/28 06:15:57;;;;;;;3.60;0.40;;;;;;;;;;6209400;23;20445;-44
2021/12/28 06:18:22;;;;;;;0.22;0.22;;;;;;;;;;6208575;23;20008;-44
2021/12/28 06:20:47;;;;;;;0.88;0.40;;;;;;;;;;6209188;23;20012;-46
2021/12/28 06:23:12;;;;;;;0.73;0.30;;;;;;;;;;6231910;23;20531;-46
2021/12/28 06:25:38;;;;;;;1.45;0.25;;;;;;;;;;6208970;23;20004;-44
2021/12/28 06:28:04;;;;;;;2.95;1.67;;;;;;;;;;6209176;23;20009;-45
2021/12/28 06:30:30;;;;;;;2.28;0.85;;;;;;;;;;6208417;23;20025;-45
2021/12/28 06:32:55;;;;;;;4.22;1.17;;;;;;;;;;6209628;23;20009;-46
2021/12/28 06:35:20;;;;;;;7.63;2.67;;;;;;;;;;6208265;23;20432;-46
2021/12/28 06:37:46;;;;;;;5.57;1.38;;;;;;;;;;6209094;23;20011;-45
2021/12/28 06:40:11;;;;;;;11.82;2.15;;;;;;;;;;6208320;23;20040;-46
2021/12/28 06:42:37;;;;;;;10.50;1.83;;;;;;;;;;6209010;23;20070;-45
2021/12/28 06:45:03;;;;;;;6.63;2.15;;;;;;;;;;6208806;23;20009;-45
2021/12/28 06:47:28;;;;;;;9.15;2.80;;;;;;;;;;6207770;23;20404;-44
2021/12/28 06:49:54;;;;;;;6.57;2.10;;;;;;;;;;6208887;23;20472;-45
2021/12/28 06:52:19;;;;;;;24.30;3.95;;;;;;;;;;6207794;23;20100;-47
2021/12/28 06:54:44;;;;;;;8.23;2.80;;;;;;;;;;6208779;23;20100;-45
2021/12/28 06:57:10;;;;;;;9.15;2.70;;;;;;;;;;6208236;23;20020;-45
2021/12/28 06:59:37;;;;;;;12.20;2.97;;;;;;;;;;6208624;23;20042;-45
2021/12/28 07:02:03;;;;;;;6.03;2.08;;;;;;;;;;6208449;23;20005;-44
2021/12/28 07:04:28;;;;;;;10.15;3.90;;;;;;;;;;6208137;23;20015;-46
2021/12/28 07:06:54;;;;;;;8.75;2.13;;;;;;;;;;6208783;23;20015;-47
2021/12/28 07:09:19;;;;;;;9.85;3.63;;;;;;;;;;6208201;23;20009;-45
2021/12/28 07:11:44;;;;;;;13.10;2.47;;;;;;;;;;6206821;23;20004;-47
2021/12/28 07:14:09;;;;;;;6.05;2.25;;;;;;;;;;6208490;23;20055;-44
2021/12/28 07:16:35;;;;;;;8.75;2.95;;;;;;;;;;6207875;23;20466;-46
2021/12/28 07:19:00;;;;;;;16.02;3.72;;;;;;;;;;6208713;23;20016;-45
2021/12/28 07:21:25;;;;;;;10.25;4.25;;;;;;;;;;6207716;23;20009;-47
2021/12/28 07:23:50;;;;;;;11.65;2.85;;;;;;;;;;6208339;23;20091;-47
2021/12/28 07:26:16;;;;;;;7.30;3.08;;;;;;;;;;6208374;23;20008;-45
2021/12/28 07:28:41;;;;;;;12.00;3.47;;;;;;;;;;6208232;23;20004;-44
2021/12/28 07:31:06;;;;;;;8.98;3.05;;;;;;;;;;6206646;23;20020;-45
2021/12/28 07:33:32;;;;;;;11.82;3.38;;;;;;;;;;6207671;23;20189;-45
2021/12/28 07:35:57;;;;;;;6.20;2.90;;;;;;;;;;6208668;23;20013;-46
2021/12/28 07:38:22;;;;;;;8.95;2.58;;;;;;;;;;6207375;23;20008;-46
2021/12/28 07:40:48;;;;;;;12.30;3.55;;;;;;;;;;6208588;23;20100;-44
2021/12/28 07:43:13;;;;;;;9.43;2.45;;;;;;;;;;6207686;23;20005;-44
2021/12/28 07:45:39;;;;;;;12.02;4.15;;;;;;;;;;6208662;23;20017;-46
2021/12/28 07:48:04;;;;;;;9.63;3.60;;;;;;;;;;6208189;23;20080;-44
2021/12/28 07:50:29;;;;;;;8.63;2.85;;;;;;;;;;6205573;23;20039;-45
2021/12/28 07:52:55;;;;;;;7.28;1.95;;;;;;;;;;6208162;23;20012;-44
2021/12/28 07:55:20;;;;;;;9.77;3.35;;;;;;;;;;6207772;23;20009;-44
2021/12/28 07:57:46;;;;;;;13.55;3.83;;;;;;;;;;6208328;23;20008;-45
2021/12/28 08:00:16;;;;;;;11.50;3.78;;;;;;;;;;6207570;23;20017;-46
2021/12/28 08:02:43;;;;;;;11.07;3.58;;;;;;;;;;6208034;23;20096;-44
2021/12/28 08:05:08;;;;;;;6.47;2.42;;;;;;;;;;6207947;23;20008;-44
2021/12/28 08:07:33;;;;;;;10.65;2.20;;;;;;;;;;6207829;23;20004;-45
2021/12/28 08:09:59;;;;;;;9.63;3.25;;;;;;;;;;6208163;23;20024;-44
2021/12/28 08:12:24;;;;;;;10.75;3.70;;;;;;;;;;6207336;23;20008;-45
2021/12/28 08:14:49;;;;;;;6.43;2.97;;;;;;;;;;6208429;23;20039;-45
2021/12/28 08:17:14;;;;;;;10.50;3.58;;;;;;;;;;6207557;23;20012;-47
2021/12/28 08:19:40;;;;;;;11.15;3.33;;;;;;;;;;6207888;23;20063;-45
2021/12/28 08:22:05;;;;;;;10.15;3.53;;;;;;;;;;6207625;23;20028;-46
2021/12/28 08:24:30;;;;;;;11.10;3.03;;;;;;;;;;6207092;23;20459;-44
2021/12/28 08:26:56;;;;;;;8.00;4.03;;;;;;;;;;6208042;23;20598;-44
2021/12/28 08:29:21;;;;;;;5.72;2.22;;;;;;;;;;6207723;23;20068;-46
2021/12/28 08:31:46;;;;;;;10.73;2.85;;;;;;;;;;6207777;23;20004;-48
2021/12/28 08:34:12;;;;;;;11.90;3.25;;;;;;;;;;6207038;23;20004;-45
2021/12/28 08:36:37;;;;;;;5.97;2.10;;;;;;;;;;6207857;23;20015;-46
2021/12/28 08:39:03;;;;;;;9.10;2.42;;;;;;;;;;6207939;23;20024;-45
2021/12/28 08:41:28;;;;;;;8.20;2.63;;;;;;;;;;6206748;23;20330;-45
2021/12/28 08:43:54;;;;;;;8.73;2.65;;;;;;;;;;6207798;23;20080;-44
2021/12/28 08:46:19;;;;;;;11.70;3.38;;;;;;;;;;6206848;23;20027;-44
2021/12/28 08:48:45;;;;;;;6.80;2.38;;;;;;;;;;6207742;23;20032;-46
2021/12/28 08:51:10;;;;;;;8.20;3.17;;;;;;;;;;6206900;23;20065;-48
2021/12/28 08:53:35;;;;;;;6.68;2.55;;;;;;;;;;6207414;23;20054;-47
2021/12/28 08:56:00;;;;;;;3.85;1.90;;;;;;;;;;6207502;23;20015;-45
2021/12/28 08:58:26;;;;;;;11.40;2.42;;;;;;;;;;6207304;23;20368;-44
2021/12/28 09:00:51;;;;;;;6.18;2.22;;;;;;;;;;6207488;23;20015;-45
2021/12/28 09:03:16;;;;;;;4.22;1.70;;;;;;;;;;6207112;23;20009;-42
2021/12/28 09:05:42;;;;;;;6.63;1.73;;;;;;;;;;6207562;23;20012;-44
2021/12/28 09:08:11;;;;;;;8.50;2.15;;;;;;;;;;6207912;23;20008;-43
2021/12/28 09:10:36;;;;;;;4.22;0.98;;;;;;;;;;6207180;23;20028;-43
2021/12/28 09:13:01;;;;;;;6.18;1.90;;;;;;;;;;6207460;23;20016;-44
2021/12/28 09:15:27;;;;;;;6.57;2.05;;;;;;;;;;6206546;23;20012;-44
2021/12/28 09:17:52;;;;;;;4.28;1.42;;;;;;;;;;6207748;23;20009;-44
2021/12/28 09:20:20;;;;;;;6.93;1.80;;;;;;;;;;6206841;23;20021;-47
2021/12/28 09:22:47;;;;;;;6.22;2.35;;;;;;;;;;6207740;23;20088;-44
2021/12/28 09:25:15;;;;;;;11.95;2.88;;;;;;;;;;6205045;23;20012;-44
2021/12/28 09:27:41;;;;;;;10.45;2.08;;;;;;;;;;6207684;23;20051;-47
2021/12/28 09:30:07;;;;;;;6.20;2.03;;;;;;;;;;6207460;23;20067;-48
2021/12/28 09:32:32;;;;;;;10.27;2.53;;;;;;;;;;6207101;23;20008;-48
2021/12/28 09:34:57;;;;;;;11.30;3.33;;;;;;;;;;6207251;23;20341;-47
2021/12/28 09:37:22;;;;;;;5.00;2.35;;;;;;;;;;6206475;23;20016;-47
2021/12/28 09:39:48;;;;;;;8.02;2.67;;;;;;;;;;6207481;23;20112;-45
2021/12/28 09:42:13;;;;;;;4.95;2.22;;;;;;;;;;6206952;23;20005;-47
2021/12/28 09:44:38;;;;;;;6.82;2.05;;;;;;;;;;6206961;23;20012;-45
2021/12/28 09:47:04;;;;;;;8.60;2.80;;;;;;;;;;6207258;23;20314;-46
2021/12/28 09:49:29;;;;;;;6.35;1.65;;;;;;;;;;6206384;23;20009;-45
2021/12/28 09:51:55;;;;;;;7.38;3.17;;;;;;;;;;6207518;23;20433;-46
2021/12/28 09:54:27;;;;;;;16.55;3.55;;;;;;;;;;6206312;23;20012;-45
2021/12/28 09:56:55;;;;;;;11.82;3.53;;;;;;;;;;6206581;23;20341;-45
2021/12/28 09:59:21;;;;;;;14.63;2.88;;;;;;;;;;6206764;23;20031;-47
2021/12/28 10:01:46;;;;;;;11.23;3.08;;;;;;;;;;6207554;23;20009;-46
2021/12/28 10:04:11;;;;;;;10.90;3.45;;;;;;;;;;6206629;23;20034;-44
2021/12/28 10:06:37;;;;;;;8.90;3.08;;;;;;;;;;6207108;23;20008;-44
2021/12/28 10:09:08;;;;;;;11.07;2.85;;;;;;;;;;6207305;23;20143;-45
2021/12/28 10:11:34;;;;;;;10.77;3.53;;;;;;;;;;6206672;23;20005;-47
2021/12/28 10:14:10;;;;;;;13.77;2.70;;;;;;;;;;6207612;23;20009;-46
2021/12/28 10:17:01;;;;;;;9.63;3.00;;;;;;;;;;6206372;23;20012;-45
2021/12/28 10:19:36;;;;;;;7.70;3.00;;;;;;;;;;6202110;23;20021;-45
2021/12/28 10:22:20;;;;;;;13.35;2.92;;;;;;;;;;6207485;23;20106;-46
2021/12/28 10:24:45;;;;;;;13.02;3.25;;;;;;;;;;6206655;23;20818;-49
2021/12/28 10:27:12;;;;;;;10.82;3.22;;;;;;;;;;6207743;23;20017;-46
2021/12/28 10:29:37;;;;;;;8.30;2.88;;;;;;;;;;6209296;23;20013;-45
2021/12/28 10:32:16;;;;;;;7.43;2.90;;;;;;;;;;6206683;23;20031;-45
2021/12/28 10:34:45;;;;;;;13.20;4.25;;;;;;;;;;6208490;23;20019;-46
2021/12/28 10:37:18;;;;;;;7.75;2.88;;;;;;;;;;6208472;23;20099;-43
2021/12/28 10:39:45;;;;;;;8.32;3.63;;;;;;;;;;6208836;23;20481;-46
2021/12/28 10:42:10;;;;;;;6.85;2.55;;;;;;;;;;6231988;23;20047;-44
2021/12/28 10:44:54;;;;;;;9.80;3.53;;;;;;;;;;6208784;23;20360;-45
2021/12/28 10:47:24;;;;;;;13.05;3.03;;;;;;;;;;6208314;23;20012;-45
2021/12/28 10:49:49;;;;;;;10.90;3.97;;;;;;;;;;6208522;23;20027;-46
2021/12/28 10:52:26;;;;;;;7.40;3.40;;;;;;;;;;6208027;23;20087;-45
2021/12/28 10:55:11;;;;;;;11.95;2.58;;;;;;;;;;6208509;23;20644;-45
2021/12/28 10:57:40;;;;;;;6.63;2.20;;;;;;;;;;6208037;23;20015;-46
2021/12/28 11:00:25;;;;;;;5.65;2.42;;;;;;;;;;6208922;23;20031;-46
2021/12/28 11:03:09;;;;;;;3.95;1.10;;;;;;;;;;6208236;23;20732;-45
2021/12/28 11:05:35;;;;;;;3.75;1.30;;;;;;;;;;6207948;23;20625;-46
2021/12/28 11:08:01;;;;;;;5.00;1.92;;;;;;;;;;6208504;23;20012;-48
2021/12/28 11:10:27;;;;;;;9.93;2.70;;;;;;;;;;6207960;23;20013;-45
2021/12/28 11:12:54;;;;;;;6.80;2.58;;;;;;;;;;6208217;23;20001;-49
2021/12/28 11:15:20;;;;;;;5.30;2.20;;;;;;;;;;6206145;23;20008;-46
2021/12/28 11:17:46;;;;;;;6.10;1.70;;;;;;;;;;6208289;23;20063;-47
2021/12/28 11:20:12;;;;;;;5.18;1.75;;;;;;;;;;6231063;23;20393;-46
2021/12/28 11:22:37;;;;;;;3.10;2.03;;;;;;;;;;6208438;23;20012;-47
2021/12/28 11:25:15;;;;;;;4.60;1.30;;;;;;;;;;6207741;23;20009;-46
2021/12/28 11:27:41;;;;;;;7.15;1.27;;;;;;;;;;6208274;23;20008;-46
2021/12/28 11:30:13;;;;;;;2.42;1.25;;;;;;;;;;6207999;23;20018;-45
2021/12/28 11:32:38;;;;;;;3.03;1.10;;;;;;;;;;6208048;23;20481;-45
2021/12/28 11:35:03;;;;;;;2.55;1.08;;;;;;;;;;6207889;23;20039;-45
2021/12/28 11:37:30;;;;;;;2.72;1.20;;;;;;;;;;6207209;23;20005;-46
2021/12/28 11:39:58;;;;;;;3.95;1.33;;;;;;;;;;6208187;23;20335;-46
2021/12/28 11:42:24;;;;;;;3.38;0.90;;;;;;;;;;6207875;23;20001;-47
2021/12/28 11:44:50;;;;;;;2.38;0.95;;;;;;;;;;6208287;23;21016;-45
2021/12/28 11:47:16;;;;;;;5.07;1.83;;;;;;;;;;6207686;23;20013;-47
2021/12/28 11:49:41;;;;;;;3.05;0.75;;;;;;;;;;6207989;23;20036;-47
2021/12/28 11:52:10;;;;;;;2.33;0.90;;;;;;;;;;6208579;23;20051;-46
2021/12/28 11:54:38;;;;;;;1.52;1.15;;;;;;;;;;6207722;23;20015;-48
2021/12/28 11:57:16;;;;;;;5.88;0.90;;;;;;;;;;6207840;23;20040;-45
2021/12/28 11:59:49;;;;;;;3.90;0.95;;;;;;;;;;6208024;23;20124;-46
2021/12/28 12:02:14;;;;;;;1.40;1.15;;;;;;;;;;6207082;23;20032;-45
2021/12/28 12:04:47;;;;;;;2.50;0.93;;;;;;;;;;6207893;23;20008;-45
2021/12/28 12:07:16;;;;;;;2.92;1.73;;;;;;;;;;6206834;23;20330;-46
2021/12/28 12:09:50;;;;;;;5.67;1.53;;;;;;;;;;6208311;23;20012;-45
2021/12/28 12:12:20;;;;;;;3.53;1.38;;;;;;;;;;6207138;23;20445;-45
2021/12/28 12:14:58;;;;;;;6.03;1.88;;;;;;;;;;6208928;23;20011;-49
2021/12/28 12:17:29;;;;;;;4.90;1.27;;;;;;;;;;6231177;23;20008;-47
2021/12/28 12:19:55;;;;;;;5.32;1.10;;;;;;;;;;6208376;23;20020;-46
2021/12/28 12:22:29;;;;;;;4.03;1.42;;;;;;;;;;6207776;23;20088;-47
2021/12/28 12:24:55;;;;;;;1.95;1.00;;;;;;;;;;6207954;23;20035;-47
2021/12/28 12:27:39;;;;;;;3.15;0.82;;;;;;;;;;6204950;23;20331;-48
2021/12/28 12:30:24;;;;;;;3.70;1.08;;;;;;;;;;6207578;23;20085;-46
2021/12/28 12:32:55;;;;;;;1.30;0.80;;;;;;;;;;6207285;23;20005;-46
2021/12/28 12:35:26;;;;;;;2.30;0.80;;;;;;;;;;6206933;23;20047;-45
2021/12/28 12:37:52;;;;;;;2.22;0.80;;;;;;;;;;6205139;23;20020;-46
2021/12/28 12:40:17;;;;;;;2.13;0.57;;;;;;;;;;6207194;23;20356;-46
2021/12/28 12:42:42;;;;;;;1.90;1.20;;;;;;;;;;6207011;23;20009;-46
2021/12/28 12:45:07;;;;;;;1.58;0.40;;;;;;;;;;6207253;23;20005;-45
2021/12/28 12:47:36;;;;;;;0.65;0.63;;;;;;;;;;6206579;23;20086;-46
2021/12/28 12:50:05;;;;;;;0.33;0.33;;;;;;;;;;6207519;23;20471;-45
2021/12/28 12:52:30;;;;;;;3.05;0.55;;;;;;;;;;6207087;23;20016;-44
2021/12/28 12:54:56;;;;;;;1.10;0.50;;;;;;;;;;6207614;23;20078;-44
2021/12/28 12:57:25;;;;;;;4.30;0.73;;;;;;;;;;6205893;23;20001;-46
2021/12/28 12:59:52;;;;;;;2.70;0.20;;;;;;;;;;6207638;23;20365;-45
2021/12/28 13:02:22;;;;;;;1.52;0.30;;;;;;;;;;6206613;23;20727;-45
2021/12/28 13:04:47;;;;;;;;;;;;;;;;;;6207576;23;20013;-44
2021/12/28 13:07:15;;;;;;;2.37;0.30;;;;;;;;;;6206390;23;19904;-44
2021/12/28 13:10:01;;;;;;;0.50;0.45;;;;;;;;;;6207309;23;20222;-43
2021/12/28 13:12:27;;;;;;;0.75;0.40;;;;;;;;;;6205857;23;20066;-43
2021/12/28 13:14:52;;;;;;;0.30;0.20;;;;;;;;;;6207326;23;20020;-44
2021/12/28 13:17:21;;;;;;;0.20;0.20;;;;;;;;;;6206621;23;20005;-47
2021/12/28 13:20:00;;;;;;;1.08;0.50;;;;;;;;;;6206940;23;20024;-46
2021/12/28 13:22:26;;;;;;;1.17;0.27;;;;;;;;;;6206752;23;20012;-45
2021/12/28 13:24:53;;;;;;;1.55;0.47;;;;;;;;;;6207336;23;20016;-44
2021/12/28 13:27:18;;;;;;;1.02;0.43;;;;;;;;;;6206354;23;20009;-45
2021/12/28 13:29:46;;;;;;;2.67;0.57;;;;;;;;;;6205919;23;20062;-44
2021/12/28 13:32:17;;;;;;;0.40;0.30;;;;;;;;;;6206793;23;20020;-43
2021/12/28 13:35:01;;;;;;;0.90;0.40;;;;;;;;;;6207153;23;20318;-45
2021/12/28 13:37:34;;;;;;;2.22;0.63;;;;;;;;;;6206998;23;20591;-45
2021/12/28 13:40:04;;;;;;;0.95;0.40;;;;;;;;;;6207303;23;20089;-45
2021/12/28 13:42:30;;;;;;;1.20;0.40;;;;;;;;;;6206929;23;20065;-45
2021/12/28 13:44:55;;;;;;;0.30;0.30;;;;;;;;;;6207190;23;20009;-45
2021/12/28 13:47:21;;;;;;;2.58;0.70;;;;;;;;;;6206630;23;20047;-45
2021/12/28 13:49:59;;;;;;;1.75;0.40;;;;;;;;;;6206938;23;20064;-47
2021/12/28 13:52:24;;;;;;;0.15;0.15;;;;;;;;;;6206425;23;20020;-45
2021/12/28 13:54:50;;;;;;;1.42;0.40;;;;;;;;;;6207128;23;20035;-45
2021/12/28 13:57:15;;;;;;;0.98;0.50;;;;;;;;;;6206149;23;20025;-47
2021/12/28 13:59:40;;;;;;;2.40;0.30;;;;;;;;;;6207313;23;20020;-46
2021/12/28 14:02:05;;;;;;;0.65;0.38;;;;;;;;;;6208362;23;20017;-45
2021/12/28 14:04:31;;;;;;;1.27;1.10;;;;;;;;;;6209105;23;20009;-48
2021/12/28 14:06:56;;;;;;;0.30;0.30;;;;;;;;;;6208762;23;20012;-45
2021/12/28 14:09:23;;;;;;;0.68;0.65;;;;;;;;;;6209237;23;20036;-49
2021/12/28 14:11:51;;;;;;;0.38;0.20;;;;;;;;;;6209145;23;20491;-50
2021/12/28 14:14:16;;;;;;;0.98;0.40;;;;;;;;;;6208578;23;20117;-47
2021/12/28 14:16:56;;;;;;;0.93;0.30;;;;;;;;;;6208786;23;20594;-46
2021/12/28 14:19:23;;;;;;;0.88;0.30;;;;;;;;;;6208669;23;20024;-46
2021/12/28 14:21:48;;;;;;;0.52;0.30;;;;;;;;;;6208856;23;20503;-48
2021/12/28 14:24:13;;;;;;;0.25;0.25;;;;;;;;;;6208691;23;20016;-47
2021/12/28 14:26:49;;;;;;;1.85;0.68;;;;;;;;;;6208310;23;20005;-48
2021/12/28 14:29:19;;;;;;;0.20;0.20;;;;;;;;;;6208614;23;20008;-46
2021/12/28 14:31:48;;;;;;;0.20;0.20;;;;;;;;;;6209106;23;20044;-45
2021/12/28 14:34:14;;;;;;;0.15;0.15;;;;;;;;;;6208684;23;20016;-45
2021/12/28 14:36:48;;;;;;;0.60;0.28;;;;;;;;;;6206650;23;20017;-45
2021/12/28 14:39:15;;;;;;;0.50;0.20;;;;;;;;;;6232185;23;20032;-47
2021/12/28 14:41:41;;;;;;;0.25;0.20;;;;;;;;;;6208821;23;20020;-47
2021/12/28 14:44:06;;;;;;;0.70;0.30;;;;;;;;;;6209254;23;20023;-44